sensor_id;sensor_type;location;lat;lon;timestamp;P1;durP1;ratioP1;P2;durP2;ratioP2
55330;SDS011;58851;42.984;20.336;2023-05-07T00:01:59;20.60;;;14.75;;
55330;SDS011;58851;42.984;20.336;2023-05-07T00:04:25;23.75;;;14.55;;
55330;SDS011;58851;42.984;20.336;2023-05-07T00:06:50;20.30;;;14.45;;
55330;SDS011;58851;42.984;20.336;2023-05-07T00:09:16;29.33;;;15.25;;
55330;SDS011;58851;42.984;20.336;2023-05-07T00:11:42;25.88;;;15.82;;
55330;SDS011;58851;42.984;20.336;2023-05-07T00:14:08;22.27;;;13.57;;
55330;SDS011;58851;42.984;20.336;2023-05-07T00:16:33;17.80;;;11.43;;
55330;SDS011;58851;42.984;20.336;2023-05-07T00:18:59;29.63;;;16.60;;
55330;SDS011;58851;42.984;20.336;2023-05-07T00:21:25;35.65;;;23.63;;
55330;SDS011;58851;42.984;20.336;2023-05-07T00:23:52;42.65;;;27.40;;
55330;SDS011;58851;42.984;20.336;2023-05-07T00:26:18;41.60;;;25.10;;
55330;SDS011;58851;42.984;20.336;2023-05-07T00:28:44;38.20;;;21.15;;
55330;SDS011;58851;42.984;20.336;2023-05-07T00:31:10;33.67;;;23.38;;
55330;SDS011;58851;42.984;20.336;2023-05-07T00:33:35;35.83;;;21.85;;
55330;SDS011;58851;42.984;20.336;2023-05-07T00:36:01;51.90;;;31.15;;
55330;SDS011;58851;42.984;20.336;2023-05-07T00:38:27;35.95;;;22.42;;
55330;SDS011;58851;42.984;20.336;2023-05-07T00:40:53;34.08;;;20.90;;
55330;SDS011;58851;42.984;20.336;2023-05-07T00:43:19;33.20;;;21.77;;
55330;SDS011;58851;42.984;20.336;2023-05-07T00:45:45;33.22;;;19.52;;
55330;SDS011;58851;42.984;20.336;2023-05-07T00:48:11;36.17;;;21.70;;
55330;SDS011;58851;42.984;20.336;2023-05-07T00:50:37;41.10;;;23.80;;
55330;SDS011;58851;42.984;20.336;2023-05-07T00:53:03;33.17;;;19.67;;
55330;SDS011;58851;42.984;20.336;2023-05-07T00:55:29;23.38;;;15.95;;
55330;SDS011;58851;42.984;20.336;2023-05-07T00:57:55;25.70;;;14.82;;
55330;SDS011;58851;42.984;20.336;2023-05-07T01:00:21;23.55;;;15.23;;
55330;SDS011;58851;42.984;20.336;2023-05-07T01:02:47;21.85;;;10.88;;
55330;SDS011;58851;42.984;20.336;2023-05-07T01:05:14;17.08;;;11.38;;
55330;SDS011;58851;42.984;20.336;2023-05-07T01:07:41;33.42;;;18.58;;
55330;SDS011;58851;42.984;20.336;2023-05-07T01:10:08;45.80;;;27.73;;
55330;SDS011;58851;42.984;20.336;2023-05-07T01:12:35;41.10;;;23.33;;
55330;SDS011;58851;42.984;20.336;2023-05-07T01:15:03;41.13;;;25.33;;
55330;SDS011;58851;42.984;20.336;2023-05-07T01:17:33;34.47;;;20.73;;
55330;SDS011;58851;42.984;20.336;2023-05-07T01:20:05;31.92;;;18.88;;
55330;SDS011;58851;42.984;20.336;2023-05-07T01:22:32;23.02;;;13.20;;
55330;SDS011;58851;42.984;20.336;2023-05-07T01:25:01;38.05;;;17.67;;
55330;SDS011;58851;42.984;20.336;2023-05-07T01:27:28;42.92;;;22.58;;
55330;SDS011;58851;42.984;20.336;2023-05-07T01:29:54;37.33;;;20.98;;
55330;SDS011;58851;42.984;20.336;2023-05-07T01:32:21;53.78;;;28.73;;
55330;SDS011;58851;42.984;20.336;2023-05-07T01:35:13;45.58;;;23.92;;
55330;SDS011;58851;42.984;20.336;2023-05-07T01:37:44;32.42;;;16.75;;
55330;SDS011;58851;42.984;20.336;2023-05-07T01:40:14;44.88;;;25.27;;
55330;SDS011;58851;42.984;20.336;2023-05-07T01:42:41;93.03;;;47.67;;
55330;SDS011;58851;42.984;20.336;2023-05-07T01:45:08;64.50;;;34.88;;
55330;SDS011;58851;42.984;20.336;2023-05-07T01:47:35;33.38;;;17.90;;
55330;SDS011;58851;42.984;20.336;2023-05-07T01:50:03;35.88;;;21.02;;
55330;SDS011;58851;42.984;20.336;2023-05-07T01:52:30;31.25;;;17.75;;
55330;SDS011;58851;42.984;20.336;2023-05-07T01:54:56;12.32;;;8.82;;
55330;SDS011;58851;42.984;20.336;2023-05-07T01:57:22;17.88;;;11.38;;
55330;SDS011;58851;42.984;20.336;2023-05-07T01:59:48;60.90;;;30.73;;
55330;SDS011;58851;42.984;20.336;2023-05-07T02:02:14;60.78;;;36.05;;
55330;SDS011;58851;42.984;20.336;2023-05-07T02:04:40;40.75;;;24.90;;
55330;SDS011;58851;42.984;20.336;2023-05-07T02:07:06;34.10;;;20.98;;
55330;SDS011;58851;42.984;20.336;2023-05-07T02:09:31;37.60;;;25.20;;
55330;SDS011;58851;42.984;20.336;2023-05-07T02:11:57;22.40;;;14.25;;
55330;SDS011;58851;42.984;20.336;2023-05-07T02:14:23;15.75;;;10.43;;
55330;SDS011;58851;42.984;20.336;2023-05-07T02:16:49;22.50;;;9.93;;
55330;SDS011;58851;42.984;20.336;2023-05-07T02:19:14;49.67;;;29.08;;
55330;SDS011;58851;42.984;20.336;2023-05-07T02:21:40;58.17;;;34.78;;
55330;SDS011;58851;42.984;20.336;2023-05-07T02:24:06;105.07;;;54.05;;
55330;SDS011;58851;42.984;20.336;2023-05-07T02:26:32;57.08;;;32.22;;
55330;SDS011;58851;42.984;20.336;2023-05-07T02:28:59;37.45;;;24.50;;
55330;SDS011;58851;42.984;20.336;2023-05-07T02:31:24;26.33;;;15.23;;
55330;SDS011;58851;42.984;20.336;2023-05-07T02:33:50;19.90;;;13.15;;
55330;SDS011;58851;42.984;20.336;2023-05-07T02:36:16;19.45;;;12.70;;
55330;SDS011;58851;42.984;20.336;2023-05-07T02:38:42;18.30;;;11.32;;
55330;SDS011;58851;42.984;20.336;2023-05-07T02:41:08;21.08;;;11.35;;
55330;SDS011;58851;42.984;20.336;2023-05-07T02:43:33;23.15;;;14.38;;
55330;SDS011;58851;42.984;20.336;2023-05-07T02:48:32;72.80;;;44.83;;
55330;SDS011;58851;42.984;20.336;2023-05-07T02:50:58;47.15;;;27.75;;
55330;SDS011;58851;42.984;20.336;2023-05-07T02:53:25;27.13;;;18.73;;
55330;SDS011;58851;42.984;20.336;2023-05-07T02:55:52;28.77;;;18.23;;
55330;SDS011;58851;42.984;20.336;2023-05-07T02:58:19;40.78;;;26.20;;
55330;SDS011;58851;42.984;20.336;2023-05-07T03:00:45;21.88;;;14.13;;
55330;SDS011;58851;42.984;20.336;2023-05-07T03:03:10;32.47;;;23.02;;
55330;SDS011;58851;42.984;20.336;2023-05-07T03:05:36;21.30;;;13.93;;
55330;SDS011;58851;42.984;20.336;2023-05-07T03:08:02;18.20;;;11.70;;
55330;SDS011;58851;42.984;20.336;2023-05-07T03:10:29;22.35;;;11.43;;
55330;SDS011;58851;42.984;20.336;2023-05-07T03:12:55;20.92;;;14.25;;
55330;SDS011;58851;42.984;20.336;2023-05-07T03:15:21;37.63;;;22.73;;
55330;SDS011;58851;42.984;20.336;2023-05-07T03:17:47;47.17;;;27.42;;
55330;SDS011;58851;42.984;20.336;2023-05-07T03:20:13;42.50;;;25.65;;
55330;SDS011;58851;42.984;20.336;2023-05-07T03:22:40;48.70;;;29.70;;
55330;SDS011;58851;42.984;20.336;2023-05-07T03:25:06;18.88;;;14.07;;
55330;SDS011;58851;42.984;20.336;2023-05-07T03:27:32;17.50;;;11.00;;
55330;SDS011;58851;42.984;20.336;2023-05-07T03:29:58;18.08;;;10.55;;
55330;SDS011;58851;42.984;20.336;2023-05-07T03:32:24;14.38;;;10.65;;
55330;SDS011;58851;42.984;20.336;2023-05-07T03:34:50;19.73;;;13.48;;
55330;SDS011;58851;42.984;20.336;2023-05-07T03:37:16;18.08;;;12.50;;
55330;SDS011;58851;42.984;20.336;2023-05-07T03:39:41;20.63;;;13.77;;
55330;SDS011;58851;42.984;20.336;2023-05-07T03:42:07;23.33;;;15.65;;
55330;SDS011;58851;42.984;20.336;2023-05-07T03:44:33;23.60;;;14.38;;
55330;SDS011;58851;42.984;20.336;2023-05-07T03:47:01;19.35;;;12.70;;
55330;SDS011;58851;42.984;20.336;2023-05-07T03:49:27;18.58;;;11.05;;
55330;SDS011;58851;42.984;20.336;2023-05-07T03:51:53;22.33;;;13.80;;
55330;SDS011;58851;42.984;20.336;2023-05-07T03:54:19;19.38;;;13.65;;
55330;SDS011;58851;42.984;20.336;2023-05-07T03:56:45;21.95;;;12.70;;
55330;SDS011;58851;42.984;20.336;2023-05-07T03:59:11;15.77;;;10.95;;
55330;SDS011;58851;42.984;20.336;2023-05-07T04:01:38;23.17;;;16.00;;
55330;SDS011;58851;42.984;20.336;2023-05-07T04:04:03;27.60;;;17.02;;
55330;SDS011;58851;42.984;20.336;2023-05-07T04:06:30;20.48;;;15.20;;
55330;SDS011;58851;42.984;20.336;2023-05-07T04:08:56;16.63;;;13.18;;
55330;SDS011;58851;42.984;20.336;2023-05-07T04:11:22;19.08;;;12.00;;
55330;SDS011;58851;42.984;20.336;2023-05-07T04:13:48;16.98;;;11.52;;
55330;SDS011;58851;42.984;20.336;2023-05-07T04:16:14;20.60;;;13.00;;
55330;SDS011;58851;42.984;20.336;2023-05-07T04:18:40;21.70;;;14.20;;
55330;SDS011;58851;42.984;20.336;2023-05-07T04:21:06;18.35;;;13.32;;
55330;SDS011;58851;42.984;20.336;2023-05-07T04:23:43;15.10;;;10.45;;
55330;SDS011;58851;42.984;20.336;2023-05-07T04:26:09;12.13;;;9.77;;
55330;SDS011;58851;42.984;20.336;2023-05-07T04:28:35;15.60;;;10.68;;
55330;SDS011;58851;42.984;20.336;2023-05-07T04:31:01;17.13;;;11.20;;
55330;SDS011;58851;42.984;20.336;2023-05-07T04:33:27;16.77;;;10.13;;
55330;SDS011;58851;42.984;20.336;2023-05-07T04:35:53;19.02;;;11.50;;
55330;SDS011;58851;42.984;20.336;2023-05-07T04:38:18;16.00;;;11.05;;
55330;SDS011;58851;42.984;20.336;2023-05-07T04:40:44;23.70;;;14.85;;
55330;SDS011;58851;42.984;20.336;2023-05-07T04:43:11;22.95;;;13.75;;
55330;SDS011;58851;42.984;20.336;2023-05-07T04:45:38;18.85;;;11.65;;
55330;SDS011;58851;42.984;20.336;2023-05-07T04:48:06;22.70;;;13.15;;
55330;SDS011;58851;42.984;20.336;2023-05-07T04:50:34;21.85;;;13.93;;
55330;SDS011;58851;42.984;20.336;2023-05-07T04:53:00;24.40;;;16.27;;
55330;SDS011;58851;42.984;20.336;2023-05-07T04:55:26;18.58;;;13.55;;
55330;SDS011;58851;42.984;20.336;2023-05-07T04:57:52;20.67;;;14.10;;
55330;SDS011;58851;42.984;20.336;2023-05-07T05:00:18;19.98;;;13.75;;
55330;SDS011;58851;42.984;20.336;2023-05-07T05:02:45;23.45;;;16.33;;
55330;SDS011;58851;42.984;20.336;2023-05-07T05:05:11;18.27;;;13.13;;
55330;SDS011;58851;42.984;20.336;2023-05-07T05:07:36;21.15;;;14.88;;
55330;SDS011;58851;42.984;20.336;2023-05-07T05:10:02;20.23;;;15.00;;
55330;SDS011;58851;42.984;20.336;2023-05-07T05:12:30;28.92;;;16.17;;
55330;SDS011;58851;42.984;20.336;2023-05-07T05:14:56;27.15;;;15.75;;
55330;SDS011;58851;42.984;20.336;2023-05-07T05:17:22;17.75;;;14.38;;
55330;SDS011;58851;42.984;20.336;2023-05-07T05:19:48;20.55;;;13.65;;
55330;SDS011;58851;42.984;20.336;2023-05-07T05:22:13;17.98;;;14.43;;
55330;SDS011;58851;42.984;20.336;2023-05-07T05:24:40;25.25;;;15.20;;
55330;SDS011;58851;42.984;20.336;2023-05-07T05:27:06;17.02;;;12.98;;
55330;SDS011;58851;42.984;20.336;2023-05-07T05:29:31;19.60;;;13.45;;
55330;SDS011;58851;42.984;20.336;2023-05-07T05:31:57;19.90;;;12.60;;
55330;SDS011;58851;42.984;20.336;2023-05-07T05:34:23;25.35;;;15.40;;
55330;SDS011;58851;42.984;20.336;2023-05-07T05:36:49;21.77;;;14.52;;
55330;SDS011;58851;42.984;20.336;2023-05-07T05:39:14;22.20;;;15.30;;
55330;SDS011;58851;42.984;20.336;2023-05-07T05:41:40;28.38;;;15.93;;
55330;SDS011;58851;42.984;20.336;2023-05-07T05:44:06;23.05;;;14.90;;
55330;SDS011;58851;42.984;20.336;2023-05-07T05:46:32;24.52;;;15.60;;
55330;SDS011;58851;42.984;20.336;2023-05-07T05:48:57;22.92;;;14.77;;
55330;SDS011;58851;42.984;20.336;2023-05-07T05:51:23;23.48;;;15.48;;
55330;SDS011;58851;42.984;20.336;2023-05-07T05:53:49;17.92;;;13.40;;
55330;SDS011;58851;42.984;20.336;2023-05-07T05:56:15;28.05;;;15.15;;
55330;SDS011;58851;42.984;20.336;2023-05-07T05:58:41;25.92;;;13.90;;
55330;SDS011;58851;42.984;20.336;2023-05-07T06:01:07;18.73;;;11.95;;
55330;SDS011;58851;42.984;20.336;2023-05-07T06:03:33;19.15;;;12.02;;
55330;SDS011;58851;42.984;20.336;2023-05-07T06:05:59;19.92;;;12.25;;
55330;SDS011;58851;42.984;20.336;2023-05-07T06:08:30;18.48;;;12.23;;
55330;SDS011;58851;42.984;20.336;2023-05-07T06:10:56;18.98;;;12.18;;
55330;SDS011;58851;42.984;20.336;2023-05-07T06:13:23;16.30;;;11.77;;
55330;SDS011;58851;42.984;20.336;2023-05-07T06:15:49;18.98;;;11.82;;
55330;SDS011;58851;42.984;20.336;2023-05-07T06:18:15;22.63;;;12.18;;
55330;SDS011;58851;42.984;20.336;2023-05-07T06:20:40;20.25;;;12.77;;
55330;SDS011;58851;42.984;20.336;2023-05-07T06:23:06;20.17;;;12.80;;
55330;SDS011;58851;42.984;20.336;2023-05-07T06:25:32;20.60;;;13.10;;
55330;SDS011;58851;42.984;20.336;2023-05-07T06:27:58;20.52;;;12.20;;
55330;SDS011;58851;42.984;20.336;2023-05-07T06:30:23;21.75;;;14.07;;
55330;SDS011;58851;42.984;20.336;2023-05-07T06:32:49;24.88;;;15.25;;
55330;SDS011;58851;42.984;20.336;2023-05-07T06:35:15;22.67;;;14.55;;
55330;SDS011;58851;42.984;20.336;2023-05-07T06:37:41;26.20;;;15.32;;
55330;SDS011;58851;42.984;20.336;2023-05-07T06:40:10;21.67;;;13.38;;
55330;SDS011;58851;42.984;20.336;2023-05-07T06:42:36;21.27;;;12.93;;
55330;SDS011;58851;42.984;20.336;2023-05-07T06:45:02;20.00;;;13.48;;
55330;SDS011;58851;42.984;20.336;2023-05-07T06:47:29;19.75;;;12.80;;
55330;SDS011;58851;42.984;20.336;2023-05-07T06:49:55;19.92;;;13.02;;
55330;SDS011;58851;42.984;20.336;2023-05-07T06:52:20;20.35;;;12.80;;
55330;SDS011;58851;42.984;20.336;2023-05-07T06:54:46;15.98;;;10.85;;
55330;SDS011;58851;42.984;20.336;2023-05-07T06:57:12;16.67;;;10.93;;
55330;SDS011;58851;42.984;20.336;2023-05-07T06:59:38;19.35;;;10.73;;
55330;SDS011;58851;42.984;20.336;2023-05-07T07:02:03;17.52;;;11.15;;
55330;SDS011;58851;42.984;20.336;2023-05-07T07:04:29;22.85;;;12.20;;
55330;SDS011;58851;42.984;20.336;2023-05-07T07:06:55;13.32;;;10.35;;
55330;SDS011;58851;42.984;20.336;2023-05-07T07:09:21;15.82;;;10.10;;
55330;SDS011;58851;42.984;20.336;2023-05-07T07:11:48;20.10;;;9.48;;
55330;SDS011;58851;42.984;20.336;2023-05-07T07:14:13;19.15;;;9.93;;
55330;SDS011;58851;42.984;20.336;2023-05-07T07:16:39;15.48;;;9.60;;
55330;SDS011;58851;42.984;20.336;2023-05-07T07:19:05;14.75;;;9.50;;
55330;SDS011;58851;42.984;20.336;2023-05-07T07:21:31;15.57;;;9.30;;
55330;SDS011;58851;42.984;20.336;2023-05-07T07:23:57;18.08;;;9.02;;
55330;SDS011;58851;42.984;20.336;2023-05-07T07:26:23;12.35;;;9.52;;
55330;SDS011;58851;42.984;20.336;2023-05-07T07:28:49;16.33;;;10.93;;
55330;SDS011;58851;42.984;20.336;2023-05-07T07:31:15;14.23;;;9.20;;
55330;SDS011;58851;42.984;20.336;2023-05-07T07:33:40;15.23;;;7.75;;
55330;SDS011;58851;42.984;20.336;2023-05-07T07:36:06;12.70;;;8.10;;
55330;SDS011;58851;42.984;20.336;2023-05-07T07:38:33;13.10;;;8.27;;
55330;SDS011;58851;42.984;20.336;2023-05-07T07:40:59;15.27;;;9.15;;
55330;SDS011;58851;42.984;20.336;2023-05-07T07:43:25;34.85;;;23.05;;
55330;SDS011;58851;42.984;20.336;2023-05-07T07:45:51;24.58;;;17.25;;
55330;SDS011;58851;42.984;20.336;2023-05-07T07:48:17;16.70;;;8.95;;
55330;SDS011;58851;42.984;20.336;2023-05-07T07:50:43;12.45;;;8.48;;
55330;SDS011;58851;42.984;20.336;2023-05-07T07:53:08;15.98;;;7.88;;
55330;SDS011;58851;42.984;20.336;2023-05-07T07:55:38;15.05;;;8.45;;
55330;SDS011;58851;42.984;20.336;2023-05-07T07:58:04;12.88;;;8.35;;
55330;SDS011;58851;42.984;20.336;2023-05-07T08:00:30;19.77;;;10.90;;
55330;SDS011;58851;42.984;20.336;2023-05-07T08:02:56;14.43;;;9.65;;
55330;SDS011;58851;42.984;20.336;2023-05-07T08:05:22;11.93;;;8.32;;
55330;SDS011;58851;42.984;20.336;2023-05-07T08:07:48;11.07;;;7.18;;
55330;SDS011;58851;42.984;20.336;2023-05-07T08:10:18;11.10;;;7.60;;
55330;SDS011;58851;42.984;20.336;2023-05-07T08:12:48;10.38;;;8.13;;
55330;SDS011;58851;42.984;20.336;2023-05-07T08:15:14;10.05;;;7.22;;
55330;SDS011;58851;42.984;20.336;2023-05-07T08:17:40;11.05;;;6.20;;
55330;SDS011;58851;42.984;20.336;2023-05-07T08:20:06;8.75;;;5.65;;
55330;SDS011;58851;42.984;20.336;2023-05-07T08:22:33;8.38;;;6.15;;
55330;SDS011;58851;42.984;20.336;2023-05-07T08:24:59;9.50;;;6.20;;
55330;SDS011;58851;42.984;20.336;2023-05-07T08:27:26;13.73;;;6.63;;
55330;SDS011;58851;42.984;20.336;2023-05-07T08:29:52;8.85;;;5.75;;
55330;SDS011;58851;42.984;20.336;2023-05-07T08:32:18;8.63;;;6.05;;
55330;SDS011;58851;42.984;20.336;2023-05-07T08:34:44;11.65;;;7.68;;
55330;SDS011;58851;42.984;20.336;2023-05-07T08:37:09;13.00;;;7.22;;
55330;SDS011;58851;42.984;20.336;2023-05-07T08:39:37;10.57;;;5.85;;
55330;SDS011;58851;42.984;20.336;2023-05-07T08:42:03;11.45;;;5.65;;
55330;SDS011;58851;42.984;20.336;2023-05-07T08:44:33;8.65;;;5.63;;
55330;SDS011;58851;42.984;20.336;2023-05-07T08:47:00;12.85;;;4.75;;
55330;SDS011;58851;42.984;20.336;2023-05-07T08:49:27;8.20;;;6.25;;
55330;SDS011;58851;42.984;20.336;2023-05-07T08:51:54;10.57;;;5.40;;
55330;SDS011;58851;42.984;20.336;2023-05-07T08:54:20;8.77;;;5.75;;
55330;SDS011;58851;42.984;20.336;2023-05-07T08:56:46;7.10;;;5.45;;
55330;SDS011;58851;42.984;20.336;2023-05-07T08:59:13;8.52;;;5.63;;
55330;SDS011;58851;42.984;20.336;2023-05-07T09:01:38;8.07;;;5.75;;
55330;SDS011;58851;42.984;20.336;2023-05-07T09:04:05;7.18;;;5.25;;
55330;SDS011;58851;42.984;20.336;2023-05-07T09:06:32;8.82;;;5.03;;
55330;SDS011;58851;42.984;20.336;2023-05-07T09:08:58;8.32;;;5.22;;
55330;SDS011;58851;42.984;20.336;2023-05-07T09:11:26;7.57;;;5.43;;
55330;SDS011;58851;42.984;20.336;2023-05-07T09:13:56;8.05;;;4.80;;
55330;SDS011;58851;42.984;20.336;2023-05-07T09:16:24;5.70;;;4.20;;
55330;SDS011;58851;42.984;20.336;2023-05-07T09:18:52;7.25;;;5.45;;
55330;SDS011;58851;42.984;20.336;2023-05-07T09:21:19;6.80;;;5.07;;
55330;SDS011;58851;42.984;20.336;2023-05-07T09:23:48;6.47;;;3.63;;
55330;SDS011;58851;42.984;20.336;2023-05-07T09:26:15;8.98;;;4.40;;
55330;SDS011;58851;42.984;20.336;2023-05-07T09:28:41;10.80;;;5.60;;
55330;SDS011;58851;42.984;20.336;2023-05-07T09:31:07;5.47;;;4.40;;
55330;SDS011;58851;42.984;20.336;2023-05-07T09:33:34;5.00;;;3.63;;
55330;SDS011;58851;42.984;20.336;2023-05-07T09:36:03;8.35;;;4.07;;
55330;SDS011;58851;42.984;20.336;2023-05-07T09:38:30;5.38;;;4.00;;
55330;SDS011;58851;42.984;20.336;2023-05-07T09:41:07;7.63;;;4.22;;
55330;SDS011;58851;42.984;20.336;2023-05-07T09:43:34;8.57;;;4.18;;
55330;SDS011;58851;42.984;20.336;2023-05-07T09:48:37;5.18;;;3.67;;
55330;SDS011;58851;42.984;20.336;2023-05-07T09:51:18;7.13;;;3.25;;
55330;SDS011;58851;42.984;20.336;2023-05-07T09:53:52;5.57;;;3.88;;
55330;SDS011;58851;42.984;20.336;2023-05-07T09:56:18;5.15;;;3.30;;
55330;SDS011;58851;42.984;20.336;2023-05-07T09:58:45;5.63;;;3.60;;
55330;SDS011;58851;42.984;20.336;2023-05-07T10:01:12;6.22;;;3.53;;
55330;SDS011;58851;42.984;20.336;2023-05-07T10:03:39;7.03;;;4.55;;
55330;SDS011;58851;42.984;20.336;2023-05-07T10:06:08;11.98;;;5.10;;
55330;SDS011;58851;42.984;20.336;2023-05-07T10:08:35;9.15;;;4.43;;
55330;SDS011;58851;42.984;20.336;2023-05-07T10:11:03;9.00;;;4.93;;
55330;SDS011;58851;42.984;20.336;2023-05-07T10:13:29;7.50;;;4.95;;
55330;SDS011;58851;42.984;20.336;2023-05-07T10:15:56;8.25;;;5.85;;
55330;SDS011;58851;42.984;20.336;2023-05-07T10:18:22;8.27;;;6.28;;
55330;SDS011;58851;42.984;20.336;2023-05-07T10:20:54;11.30;;;6.82;;
55330;SDS011;58851;42.984;20.336;2023-05-07T10:23:23;6.32;;;4.32;;
55330;SDS011;58851;42.984;20.336;2023-05-07T10:25:51;6.43;;;4.30;;
55330;SDS011;58851;42.984;20.336;2023-05-07T10:28:19;7.40;;;3.67;;
55330;SDS011;58851;42.984;20.336;2023-05-07T10:33:27;8.45;;;5.70;;
55330;SDS011;58851;42.984;20.336;2023-05-07T10:35:58;6.97;;;5.25;;
55330;SDS011;58851;42.984;20.336;2023-05-07T10:38:26;7.70;;;4.60;;
55330;SDS011;58851;42.984;20.336;2023-05-07T10:40:53;10.65;;;5.30;;
55330;SDS011;58851;42.984;20.336;2023-05-07T10:43:19;18.73;;;7.97;;
55330;SDS011;58851;42.984;20.336;2023-05-07T10:46:08;10.70;;;5.60;;
55330;SDS011;58851;42.984;20.336;2023-05-07T10:51:36;13.18;;;7.50;;
55330;SDS011;58851;42.984;20.336;2023-05-07T10:56:38;13.50;;;4.68;;
55330;SDS011;58851;42.984;20.336;2023-05-07T11:01:56;6.32;;;3.97;;
55330;SDS011;58851;42.984;20.336;2023-05-07T11:04:31;8.02;;;5.03;;
55330;SDS011;58851;42.984;20.336;2023-05-07T11:12:16;4.72;;;3.42;;
55330;SDS011;58851;42.984;20.336;2023-05-07T11:17:09;7.30;;;4.68;;
55330;SDS011;58851;42.984;20.336;2023-05-07T11:19:49;7.45;;;4.70;;
55330;SDS011;58851;42.984;20.336;2023-05-07T11:25:02;4.72;;;3.13;;
55330;SDS011;58851;42.984;20.336;2023-05-07T11:27:28;6.28;;;3.25;;
55330;SDS011;58851;42.984;20.336;2023-05-07T11:29:55;5.55;;;3.65;;
55330;SDS011;58851;42.984;20.336;2023-05-07T11:32:24;6.85;;;4.70;;
55330;SDS011;58851;42.984;20.336;2023-05-07T11:34:52;4.72;;;3.05;;
55330;SDS011;58851;42.984;20.336;2023-05-07T11:37:19;7.05;;;4.68;;
55330;SDS011;58851;42.984;20.336;2023-05-07T11:39:45;9.98;;;4.47;;
55330;SDS011;58851;42.984;20.336;2023-05-07T11:44:56;5.55;;;3.53;;
55330;SDS011;58851;42.984;20.336;2023-05-07T11:47:22;6.50;;;3.95;;
55330;SDS011;58851;42.984;20.336;2023-05-07T11:49:53;5.40;;;4.07;;
55330;SDS011;58851;42.984;20.336;2023-05-07T11:52:20;5.85;;;3.10;;
55330;SDS011;58851;42.984;20.336;2023-05-07T11:54:51;6.93;;;3.97;;
55330;SDS011;58851;42.984;20.336;2023-05-07T11:57:18;10.45;;;5.78;;
55330;SDS011;58851;42.984;20.336;2023-05-07T11:59:45;8.70;;;4.32;;
55330;SDS011;58851;42.984;20.336;2023-05-07T12:02:14;12.35;;;5.60;;
55330;SDS011;58851;42.984;20.336;2023-05-07T12:04:43;13.18;;;6.40;;
55330;SDS011;58851;42.984;20.336;2023-05-07T12:07:13;8.80;;;4.47;;
55330;SDS011;58851;42.984;20.336;2023-05-07T12:09:40;6.82;;;3.20;;
55330;SDS011;58851;42.984;20.336;2023-05-07T12:12:06;6.93;;;3.42;;
55330;SDS011;58851;42.984;20.336;2023-05-07T12:14:32;6.20;;;3.53;;
55330;SDS011;58851;42.984;20.336;2023-05-07T12:17:02;5.45;;;3.30;;
55330;SDS011;58851;42.984;20.336;2023-05-07T12:19:30;11.10;;;5.22;;
55330;SDS011;58851;42.984;20.336;2023-05-07T12:21:56;8.90;;;5.00;;
55330;SDS011;58851;42.984;20.336;2023-05-07T12:24:22;6.43;;;3.60;;
55330;SDS011;58851;42.984;20.336;2023-05-07T12:26:48;8.77;;;3.78;;
55330;SDS011;58851;42.984;20.336;2023-05-07T12:29:14;7.97;;;3.70;;
55330;SDS011;58851;42.984;20.336;2023-05-07T12:31:43;9.27;;;3.67;;
55330;SDS011;58851;42.984;20.336;2023-05-07T12:34:12;7.95;;;4.05;;
55330;SDS011;58851;42.984;20.336;2023-05-07T12:36:38;12.23;;;4.25;;
55330;SDS011;58851;42.984;20.336;2023-05-07T12:39:08;8.57;;;3.90;;
55330;SDS011;58851;42.984;20.336;2023-05-07T12:44:23;8.93;;;5.55;;
55330;SDS011;58851;42.984;20.336;2023-05-07T12:47:02;7.10;;;3.50;;
55330;SDS011;58851;42.984;20.336;2023-05-07T12:49:28;8.38;;;3.65;;
55330;SDS011;58851;42.984;20.336;2023-05-07T12:51:54;5.22;;;2.80;;
55330;SDS011;58851;42.984;20.336;2023-05-07T12:54:33;6.75;;;3.13;;
55330;SDS011;58851;42.984;20.336;2023-05-07T12:57:03;8.25;;;4.88;;
55330;SDS011;58851;42.984;20.336;2023-05-07T12:59:36;6.80;;;3.20;;
55330;SDS011;58851;42.984;20.336;2023-05-07T13:02:03;8.48;;;3.67;;
55330;SDS011;58851;42.984;20.336;2023-05-07T13:04:29;7.05;;;3.30;;
55330;SDS011;58851;42.984;20.336;2023-05-07T13:06:55;12.65;;;4.20;;
55330;SDS011;58851;42.984;20.336;2023-05-07T13:09:21;7.28;;;3.42;;
55330;SDS011;58851;42.984;20.336;2023-05-07T13:11:47;7.38;;;4.07;;
55330;SDS011;58851;42.984;20.336;2023-05-07T13:14:13;7.68;;;4.57;;
55330;SDS011;58851;42.984;20.336;2023-05-07T13:16:38;9.82;;;3.55;;
55330;SDS011;58851;42.984;20.336;2023-05-07T13:19:04;9.30;;;3.65;;
55330;SDS011;58851;42.984;20.336;2023-05-07T13:21:31;7.97;;;3.55;;
55330;SDS011;58851;42.984;20.336;2023-05-07T13:23:58;6.32;;;3.05;;
55330;SDS011;58851;42.984;20.336;2023-05-07T13:26:24;8.98;;;4.20;;
55330;SDS011;58851;42.984;20.336;2023-05-07T13:28:50;13.05;;;4.55;;
55330;SDS011;58851;42.984;20.336;2023-05-07T13:31:17;10.38;;;3.33;;
55330;SDS011;58851;42.984;20.336;2023-05-07T13:33:43;9.40;;;5.93;;
55330;SDS011;58851;42.984;20.336;2023-05-07T13:36:09;9.27;;;4.47;;
55330;SDS011;58851;42.984;20.336;2023-05-07T13:38:35;5.05;;;3.30;;
55330;SDS011;58851;42.984;20.336;2023-05-07T13:41:01;8.02;;;3.83;;
55330;SDS011;58851;42.984;20.336;2023-05-07T13:43:27;4.35;;;2.90;;
55330;SDS011;58851;42.984;20.336;2023-05-07T13:45:52;5.07;;;2.60;;
55330;SDS011;58851;42.984;20.336;2023-05-07T13:48:18;7.32;;;3.72;;
55330;SDS011;58851;42.984;20.336;2023-05-07T13:50:45;7.15;;;3.50;;
55330;SDS011;58851;42.984;20.336;2023-05-07T13:53:10;8.05;;;3.72;;
55330;SDS011;58851;42.984;20.336;2023-05-07T13:55:36;7.40;;;4.15;;
55330;SDS011;58851;42.984;20.336;2023-05-07T13:58:02;14.48;;;4.32;;
55330;SDS011;58851;42.984;20.336;2023-05-07T14:00:28;6.35;;;3.10;;
55330;SDS011;58851;42.984;20.336;2023-05-07T14:02:55;4.75;;;3.28;;
55330;SDS011;58851;42.984;20.336;2023-05-07T14:05:21;7.30;;;3.15;;
55330;SDS011;58851;42.984;20.336;2023-05-07T14:07:53;9.07;;;3.50;;
55330;SDS011;58851;42.984;20.336;2023-05-07T14:10:20;5.30;;;3.22;;
55330;SDS011;58851;42.984;20.336;2023-05-07T14:12:48;7.57;;;3.50;;
55330;SDS011;58851;42.984;20.336;2023-05-07T14:15:15;5.32;;;2.90;;
55330;SDS011;58851;42.984;20.336;2023-05-07T14:17:42;6.32;;;3.17;;
55330;SDS011;58851;42.984;20.336;2023-05-07T14:20:09;11.13;;;3.55;;
55330;SDS011;58851;42.984;20.336;2023-05-07T14:22:36;9.00;;;3.95;;
55330;SDS011;58851;42.984;20.336;2023-05-07T14:25:02;5.63;;;3.10;;
55330;SDS011;58851;42.984;20.336;2023-05-07T14:27:29;6.53;;;2.92;;
55330;SDS011;58851;42.984;20.336;2023-05-07T14:29:54;5.55;;;3.55;;
55330;SDS011;58851;42.984;20.336;2023-05-07T14:32:21;6.93;;;3.40;;
55330;SDS011;58851;42.984;20.336;2023-05-07T14:34:47;4.90;;;2.70;;
55330;SDS011;58851;42.984;20.336;2023-05-07T14:37:13;5.32;;;3.72;;
55330;SDS011;58851;42.984;20.336;2023-05-07T14:39:39;8.85;;;3.50;;
55330;SDS011;58851;42.984;20.336;2023-05-07T14:42:05;7.97;;;3.10;;
55330;SDS011;58851;42.984;20.336;2023-05-07T14:44:33;8.43;;;3.38;;
55330;SDS011;58851;42.984;20.336;2023-05-07T14:46:59;8.15;;;3.38;;
55330;SDS011;58851;42.984;20.336;2023-05-07T14:49:25;8.52;;;3.97;;